Terminal Aerodrome Forecast
Issued by NWS

Home | Current Version | Previous Version | Text Only | Print | Product List | Glossary On
Versions: 1 2 3 4 5 6 7 8 9 10 11 12 13 14 15 16 17
000
FTUS44 KSJT 191100 RRA
TAFBBD
TAF
KBBD 191142Z 1912/2012 05010KT P6SM OVC005
     FM191400 03006KT 6SM BR OVC006
     FM191900 02005KT P6SM BKN015
     FM192300 03005KT P6SM SCT025
     FM200100 07005KT P6SM BKN025=

USA.gov is the U.S. government's official web portal to all federal, state and local government web resources and services.